sensor_id;sensor_type;location;lat;lon;timestamp;P1;durP1;ratioP1;P2;durP2;ratioP2
11052;SDS011;55230;42.602;23.470;2022-12-26T00:00:34;6.37;;;4.33;;
11052;SDS011;55230;42.602;23.470;2022-12-26T00:03:01;7.13;;;4.23;;
11052;SDS011;55230;42.602;23.470;2022-12-26T00:05:27;6.17;;;3.87;;
11052;SDS011;55230;42.602;23.470;2022-12-26T00:07:55;6.73;;;3.83;;
11052;SDS011;55230;42.602;23.470;2022-12-26T00:10:23;6.70;;;4.27;;
11052;SDS011;55230;42.602;23.470;2022-12-26T00:12:50;6.13;;;4.47;;
11052;SDS011;55230;42.602;23.470;2022-12-26T00:15:16;7.67;;;4.77;;
11052;SDS011;55230;42.602;23.470;2022-12-26T00:17:43;8.83;;;4.47;;
11052;SDS011;55230;42.602;23.470;2022-12-26T00:20:10;9.00;;;4.90;;
11052;SDS011;55230;42.602;23.470;2022-12-26T00:22:37;8.30;;;4.93;;
11052;SDS011;55230;42.602;23.470;2022-12-26T00:25:04;10.83;;;4.87;;
11052;SDS011;55230;42.602;23.470;2022-12-26T00:27:33;7.43;;;4.70;;
11052;SDS011;55230;42.602;23.470;2022-12-26T00:30:00;6.20;;;3.77;;
11052;SDS011;55230;42.602;23.470;2022-12-26T00:32:27;11.87;;;6.00;;
11052;SDS011;55230;42.602;23.470;2022-12-26T00:34:54;14.27;;;7.23;;
11052;SDS011;55230;42.602;23.470;2022-12-26T00:37:20;27.80;;;15.67;;
11052;SDS011;55230;42.602;23.470;2022-12-26T00:39:47;28.73;;;17.67;;
11052;SDS011;55230;42.602;23.470;2022-12-26T00:42:14;25.97;;;15.93;;
11052;SDS011;55230;42.602;23.470;2022-12-26T00:44:42;20.23;;;13.43;;
11052;SDS011;55230;42.602;23.470;2022-12-26T00:47:09;19.43;;;12.77;;
11052;SDS011;55230;42.602;23.470;2022-12-26T00:49:36;15.13;;;9.07;;
11052;SDS011;55230;42.602;23.470;2022-12-26T00:52:02;11.40;;;7.60;;
11052;SDS011;55230;42.602;23.470;2022-12-26T00:54:30;10.60;;;7.37;;
11052;SDS011;55230;42.602;23.470;2022-12-26T00:56:57;10.87;;;6.40;;
11052;SDS011;55230;42.602;23.470;2022-12-26T00:59:24;9.83;;;5.77;;
11052;SDS011;55230;42.602;23.470;2022-12-26T01:01:52;6.53;;;5.10;;
11052;SDS011;55230;42.602;23.470;2022-12-26T01:04:19;9.77;;;6.50;;
11052;SDS011;55230;42.602;23.470;2022-12-26T01:06:45;5.30;;;3.90;;
11052;SDS011;55230;42.602;23.470;2022-12-26T01:09:12;3.67;;;2.70;;
11052;SDS011;55230;42.602;23.470;2022-12-26T01:11:39;5.03;;;2.83;;
11052;SDS011;55230;42.602;23.470;2022-12-26T01:14:07;8.67;;;4.60;;
11052;SDS011;55230;42.602;23.470;2022-12-26T01:16:36;7.90;;;5.10;;
11052;SDS011;55230;42.602;23.470;2022-12-26T01:19:05;9.90;;;6.40;;
11052;SDS011;55230;42.602;23.470;2022-12-26T01:21:32;11.57;;;6.90;;
11052;SDS011;55230;42.602;23.470;2022-12-26T01:23:58;7.20;;;5.17;;
11052;SDS011;55230;42.602;23.470;2022-12-26T01:26:25;7.77;;;4.80;;
11052;SDS011;55230;42.602;23.470;2022-12-26T01:28:52;6.03;;;4.37;;
11052;SDS011;55230;42.602;23.470;2022-12-26T01:31:20;5.13;;;3.67;;
11052;SDS011;55230;42.602;23.470;2022-12-26T01:33:48;6.20;;;3.90;;
11052;SDS011;55230;42.602;23.470;2022-12-26T01:36:16;8.03;;;4.57;;
11052;SDS011;55230;42.602;23.470;2022-12-26T01:38:43;6.10;;;4.03;;
11052;SDS011;55230;42.602;23.470;2022-12-26T01:41:11;6.07;;;3.77;;
11052;SDS011;55230;42.602;23.470;2022-12-26T01:43:51;6.60;;;4.03;;
11052;SDS011;55230;42.602;23.470;2022-12-26T01:46:25;3.93;;;2.93;;
11052;SDS011;55230;42.602;23.470;2022-12-26T01:48:56;3.90;;;2.80;;
11052;SDS011;55230;42.602;23.470;2022-12-26T01:51:29;6.53;;;3.33;;
11052;SDS011;55230;42.602;23.470;2022-12-26T01:53:59;4.47;;;3.47;;
11052;SDS011;55230;42.602;23.470;2022-12-26T01:56:30;4.50;;;3.27;;
11052;SDS011;55230;42.602;23.470;2022-12-26T01:59:03;17.10;;;7.03;;
11052;SDS011;55230;42.602;23.470;2022-12-26T02:01:33;12.27;;;7.03;;
11052;SDS011;55230;42.602;23.470;2022-12-26T02:04:04;9.10;;;6.10;;
11052;SDS011;55230;42.602;23.470;2022-12-26T02:06:53;6.17;;;4.63;;
11052;SDS011;55230;42.602;23.470;2022-12-26T02:09:20;5.73;;;4.23;;
11052;SDS011;55230;42.602;23.470;2022-12-26T02:11:48;6.90;;;3.40;;
11052;SDS011;55230;42.602;23.470;2022-12-26T02:14:18;3.50;;;2.70;;
11052;SDS011;55230;42.602;23.470;2022-12-26T02:16:45;4.50;;;2.43;;
11052;SDS011;55230;42.602;23.470;2022-12-26T02:19:21;3.67;;;2.03;;
11052;SDS011;55230;42.602;23.470;2022-12-26T02:22:10;2.90;;;1.97;;
11052;SDS011;55230;42.602;23.470;2022-12-26T02:25:25;3.43;;;2.63;;
11052;SDS011;55230;42.602;23.470;2022-12-26T02:31:16;3.03;;;2.63;;
11052;SDS011;55230;42.602;23.470;2022-12-26T02:33:52;4.10;;;2.30;;
11052;SDS011;55230;42.602;23.470;2022-12-26T02:36:31;2.80;;;1.87;;
11052;SDS011;55230;42.602;23.470;2022-12-26T02:39:20;2.63;;;2.10;;
11052;SDS011;55230;42.602;23.470;2022-12-26T02:41:59;2.10;;;1.60;;
11052;SDS011;55230;42.602;23.470;2022-12-26T02:44:32;11.87;;;6.03;;
11052;SDS011;55230;42.602;23.470;2022-12-26T02:47:27;9.03;;;4.77;;
11052;SDS011;55230;42.602;23.470;2022-12-26T02:50:00;9.87;;;7.23;;
11052;SDS011;55230;42.602;23.470;2022-12-26T02:52:59;8.80;;;7.17;;
11052;SDS011;55230;42.602;23.470;2022-12-26T02:55:51;18.77;;;11.50;;
11052;SDS011;55230;42.602;23.470;2022-12-26T02:58:42;20.30;;;12.37;;
11052;SDS011;55230;42.602;23.470;2022-12-26T03:01:37;20.23;;;13.07;;
11052;SDS011;55230;42.602;23.470;2022-12-26T03:04:26;19.07;;;12.27;;
11052;SDS011;55230;42.602;23.470;2022-12-26T03:07:15;20.03;;;14.53;;
11052;SDS011;55230;42.602;23.470;2022-12-26T03:10:05;20.90;;;13.80;;
11052;SDS011;55230;42.602;23.470;2022-12-26T03:13:13;22.87;;;13.30;;
11052;SDS011;55230;42.602;23.470;2022-12-26T03:15:46;22.30;;;14.33;;
11052;SDS011;55230;42.602;23.470;2022-12-26T03:18:36;17.60;;;11.50;;
11052;SDS011;55230;42.602;23.470;2022-12-26T03:21:09;16.53;;;10.80;;
11052;SDS011;55230;42.602;23.470;2022-12-26T03:23:38;13.30;;;8.77;;
11052;SDS011;55230;42.602;23.470;2022-12-26T03:26:08;11.93;;;6.23;;
11052;SDS011;55230;42.602;23.470;2022-12-26T03:28:57;12.50;;;7.50;;
11052;SDS011;55230;42.602;23.470;2022-12-26T03:31:44;13.37;;;8.03;;
11052;SDS011;55230;42.602;23.470;2022-12-26T03:34:10;10.33;;;6.77;;
11052;SDS011;55230;42.602;23.470;2022-12-26T03:36:46;5.97;;;4.83;;
11052;SDS011;55230;42.602;23.470;2022-12-26T03:39:22;6.83;;;4.30;;
11052;SDS011;55230;42.602;23.470;2022-12-26T03:42:15;9.87;;;7.20;;
11052;SDS011;55230;42.602;23.470;2022-12-26T03:45:12;9.70;;;6.83;;
11052;SDS011;55230;42.602;23.470;2022-12-26T03:48:03;14.00;;;8.17;;
11052;SDS011;55230;42.602;23.470;2022-12-26T03:50:54;20.23;;;11.53;;
11052;SDS011;55230;42.602;23.470;2022-12-26T03:53:48;104.20;;;43.57;;
11052;SDS011;55230;42.602;23.470;2022-12-26T03:56:39;60.40;;;29.30;;
11052;SDS011;55230;42.602;23.470;2022-12-26T03:59:30;29.30;;;15.00;;
11052;SDS011;55230;42.602;23.470;2022-12-26T04:02:30;19.33;;;12.17;;
11052;SDS011;55230;42.602;23.470;2022-12-26T04:05:16;31.87;;;19.60;;
11052;SDS011;55230;42.602;23.470;2022-12-26T04:08:04;23.63;;;15.87;;
11052;SDS011;55230;42.602;23.470;2022-12-26T04:10:55;20.63;;;11.33;;
11052;SDS011;55230;42.602;23.470;2022-12-26T04:13:51;24.87;;;14.63;;
11052;SDS011;55230;42.602;23.470;2022-12-26T04:16:39;16.43;;;10.20;;
11052;SDS011;55230;42.602;23.470;2022-12-26T04:19:39;13.07;;;9.20;;
11052;SDS011;55230;42.602;23.470;2022-12-26T04:22:17;11.07;;;7.53;;
11052;SDS011;55230;42.602;23.470;2022-12-26T04:25:07;12.63;;;7.17;;
11052;SDS011;55230;42.602;23.470;2022-12-26T04:27:57;18.57;;;11.30;;
11052;SDS011;55230;42.602;23.470;2022-12-26T04:30:43;15.73;;;11.63;;
11052;SDS011;55230;42.602;23.470;2022-12-26T04:33:34;17.03;;;12.73;;
11052;SDS011;55230;42.602;23.470;2022-12-26T04:36:26;11.63;;;8.70;;
11052;SDS011;55230;42.602;23.470;2022-12-26T04:39:15;16.73;;;10.27;;
11052;SDS011;55230;42.602;23.470;2022-12-26T04:42:05;15.67;;;10.50;;
11052;SDS011;55230;42.602;23.470;2022-12-26T04:44:51;14.83;;;10.53;;
11052;SDS011;55230;42.602;23.470;2022-12-26T04:47:19;14.63;;;8.90;;
11052;SDS011;55230;42.602;23.470;2022-12-26T04:49:46;9.17;;;7.20;;
11052;SDS011;55230;42.602;23.470;2022-12-26T04:52:31;10.90;;;7.10;;
11052;SDS011;55230;42.602;23.470;2022-12-26T04:55:11;13.73;;;9.33;;
11052;SDS011;55230;42.602;23.470;2022-12-26T04:57:38;9.77;;;7.57;;
11052;SDS011;55230;42.602;23.470;2022-12-26T05:00:07;10.93;;;8.27;;
11052;SDS011;55230;42.602;23.470;2022-12-26T05:02:34;11.83;;;7.23;;
11052;SDS011;55230;42.602;23.470;2022-12-26T05:05:19;11.37;;;7.77;;
11052;SDS011;55230;42.602;23.470;2022-12-26T05:08:03;8.83;;;6.37;;
11052;SDS011;55230;42.602;23.470;2022-12-26T05:10:47;9.80;;;6.30;;
11052;SDS011;55230;42.602;23.470;2022-12-26T05:13:14;19.23;;;10.97;;
11052;SDS011;55230;42.602;23.470;2022-12-26T05:15:42;22.10;;;11.10;;
11052;SDS011;55230;42.602;23.470;2022-12-26T05:18:26;12.83;;;8.80;;
11052;SDS011;55230;42.602;23.470;2022-12-26T05:21:10;14.27;;;7.87;;
11052;SDS011;55230;42.602;23.470;2022-12-26T05:23:57;12.13;;;9.17;;
11052;SDS011;55230;42.602;23.470;2022-12-26T05:26:41;14.53;;;8.83;;
11052;SDS011;55230;42.602;23.470;2022-12-26T05:29:25;9.60;;;6.83;;
11052;SDS011;55230;42.602;23.470;2022-12-26T05:31:54;12.00;;;6.87;;
11052;SDS011;55230;42.602;23.470;2022-12-26T05:34:20;10.00;;;6.70;;
11052;SDS011;55230;42.602;23.470;2022-12-26T05:36:47;12.37;;;8.70;;
11052;SDS011;55230;42.602;23.470;2022-12-26T05:39:15;12.10;;;7.83;;
11052;SDS011;55230;42.602;23.470;2022-12-26T05:41:42;12.47;;;8.73;;
11052;SDS011;55230;42.602;23.470;2022-12-26T05:44:09;29.90;;;16.97;;
11052;SDS011;55230;42.602;23.470;2022-12-26T05:46:36;33.97;;;18.80;;
11052;SDS011;55230;42.602;23.470;2022-12-26T05:49:05;41.57;;;24.33;;
11052;SDS011;55230;42.602;23.470;2022-12-26T05:51:32;43.17;;;24.40;;
11052;SDS011;55230;42.602;23.470;2022-12-26T05:54:00;29.53;;;18.23;;
11052;SDS011;55230;42.602;23.470;2022-12-26T05:56:27;33.67;;;20.20;;
11052;SDS011;55230;42.602;23.470;2022-12-26T05:58:54;34.30;;;20.80;;
11052;SDS011;55230;42.602;23.470;2022-12-26T06:01:22;27.37;;;19.10;;
11052;SDS011;55230;42.602;23.470;2022-12-26T06:03:50;19.33;;;14.17;;
11052;SDS011;55230;42.602;23.470;2022-12-26T06:06:19;23.73;;;14.57;;
11052;SDS011;55230;42.602;23.470;2022-12-26T06:08:47;19.53;;;12.27;;
11052;SDS011;55230;42.602;23.470;2022-12-26T06:11:15;19.77;;;14.00;;
11052;SDS011;55230;42.602;23.470;2022-12-26T06:13:43;18.67;;;13.57;;
11052;SDS011;55230;42.602;23.470;2022-12-26T06:16:11;21.23;;;13.90;;
11052;SDS011;55230;42.602;23.470;2022-12-26T06:18:39;32.10;;;17.47;;
11052;SDS011;55230;42.602;23.470;2022-12-26T06:21:07;30.37;;;15.70;;
11052;SDS011;55230;42.602;23.470;2022-12-26T06:23:37;27.90;;;19.23;;
11052;SDS011;55230;42.602;23.470;2022-12-26T06:26:04;27.13;;;18.47;;
11052;SDS011;55230;42.602;23.470;2022-12-26T06:28:33;20.37;;;14.73;;
11052;SDS011;55230;42.602;23.470;2022-12-26T06:31:01;25.97;;;17.03;;
11052;SDS011;55230;42.602;23.470;2022-12-26T06:33:28;32.47;;;20.63;;
11052;SDS011;55230;42.602;23.470;2022-12-26T06:36:00;29.63;;;17.13;;
11052;SDS011;55230;42.602;23.470;2022-12-26T06:38:28;454.57;;;46.00;;
11052;SDS011;55230;42.602;23.470;2022-12-26T06:40:56;23.23;;;16.70;;
11052;SDS011;55230;42.602;23.470;2022-12-26T06:43:23;22.07;;;15.40;;
11052;SDS011;55230;42.602;23.470;2022-12-26T06:45:53;31.73;;;19.10;;
11052;SDS011;55230;42.602;23.470;2022-12-26T06:48:20;29.90;;;18.13;;
11052;SDS011;55230;42.602;23.470;2022-12-26T06:50:47;26.20;;;16.83;;
11052;SDS011;55230;42.602;23.470;2022-12-26T06:53:14;25.07;;;16.03;;
11052;SDS011;55230;42.602;23.470;2022-12-26T06:55:41;19.60;;;12.87;;
11052;SDS011;55230;42.602;23.470;2022-12-26T06:58:09;55.87;;;35.83;;
11052;SDS011;55230;42.602;23.470;2022-12-26T07:00:35;45.70;;;29.77;;
11052;SDS011;55230;42.602;23.470;2022-12-26T07:03:02;37.17;;;23.27;;
11052;SDS011;55230;42.602;23.470;2022-12-26T07:05:29;50.50;;;30.67;;
11052;SDS011;55230;42.602;23.470;2022-12-26T07:07:56;80.53;;;43.07;;
11052;SDS011;55230;42.602;23.470;2022-12-26T07:10:23;77.23;;;43.27;;
11052;SDS011;55230;42.602;23.470;2022-12-26T07:12:50;48.57;;;29.90;;
11052;SDS011;55230;42.602;23.470;2022-12-26T07:15:18;53.60;;;31.57;;
11052;SDS011;55230;42.602;23.470;2022-12-26T07:17:44;43.23;;;24.97;;
11052;SDS011;55230;42.602;23.470;2022-12-26T07:20:11;34.73;;;21.37;;
11052;SDS011;55230;42.602;23.470;2022-12-26T07:22:38;27.03;;;19.37;;
11052;SDS011;55230;42.602;23.470;2022-12-26T07:25:05;45.33;;;30.90;;
11052;SDS011;55230;42.602;23.470;2022-12-26T07:27:32;48.47;;;27.23;;
11052;SDS011;55230;42.602;23.470;2022-12-26T07:29:59;34.63;;;23.07;;
11052;SDS011;55230;42.602;23.470;2022-12-26T07:32:27;106.50;;;58.13;;
11052;SDS011;55230;42.602;23.470;2022-12-26T07:34:54;109.13;;;62.33;;
11052;SDS011;55230;42.602;23.470;2022-12-26T07:37:20;124.63;;;72.80;;
11052;SDS011;55230;42.602;23.470;2022-12-26T07:39:47;113.30;;;69.97;;
11052;SDS011;55230;42.602;23.470;2022-12-26T07:42:14;103.90;;;66.53;;
11052;SDS011;55230;42.602;23.470;2022-12-26T07:44:41;123.13;;;75.70;;
11052;SDS011;55230;42.602;23.470;2022-12-26T07:47:08;86.60;;;57.93;;
11052;SDS011;55230;42.602;23.470;2022-12-26T07:49:36;91.67;;;61.33;;
11052;SDS011;55230;42.602;23.470;2022-12-26T07:52:03;107.30;;;68.87;;
11052;SDS011;55230;42.602;23.470;2022-12-26T07:54:30;96.37;;;65.00;;
11052;SDS011;55230;42.602;23.470;2022-12-26T07:56:57;147.63;;;89.53;;
11052;SDS011;55230;42.602;23.470;2022-12-26T07:59:23;203.27;;;125.77;;
11052;SDS011;55230;42.602;23.470;2022-12-26T08:01:50;68.20;;;43.57;;
11052;SDS011;55230;42.602;23.470;2022-12-26T08:04:17;46.90;;;32.53;;
11052;SDS011;55230;42.602;23.470;2022-12-26T08:06:46;42.80;;;31.40;;
11052;SDS011;55230;42.602;23.470;2022-12-26T08:09:16;60.83;;;38.63;;
11052;SDS011;55230;42.602;23.470;2022-12-26T08:11:43;69.07;;;43.80;;
11052;SDS011;55230;42.602;23.470;2022-12-26T08:14:11;72.03;;;45.40;;
11052;SDS011;55230;42.602;23.470;2022-12-26T08:16:40;61.33;;;41.07;;
11052;SDS011;55230;42.602;23.470;2022-12-26T08:19:08;57.67;;;40.10;;
11052;SDS011;55230;42.602;23.470;2022-12-26T08:21:35;57.43;;;39.77;;
11052;SDS011;55230;42.602;23.470;2022-12-26T08:24:03;51.87;;;37.63;;
11052;SDS011;55230;42.602;23.470;2022-12-26T08:26:30;52.90;;;37.00;;
11052;SDS011;55230;42.602;23.470;2022-12-26T08:28:57;44.03;;;31.00;;
11052;SDS011;55230;42.602;23.470;2022-12-26T08:31:24;46.47;;;32.10;;
11052;SDS011;55230;42.602;23.470;2022-12-26T08:33:53;39.97;;;28.77;;
11052;SDS011;55230;42.602;23.470;2022-12-26T08:36:20;38.17;;;27.13;;
11052;SDS011;55230;42.602;23.470;2022-12-26T08:38:47;42.10;;;30.17;;
11052;SDS011;55230;42.602;23.470;2022-12-26T08:41:15;44.23;;;29.53;;
11052;SDS011;55230;42.602;23.470;2022-12-26T08:43:42;43.37;;;30.70;;
11052;SDS011;55230;42.602;23.470;2022-12-26T08:46:12;33.63;;;23.40;;
11052;SDS011;55230;42.602;23.470;2022-12-26T08:48:39;33.30;;;24.40;;
11052;SDS011;55230;42.602;23.470;2022-12-26T08:51:07;34.80;;;26.10;;
11052;SDS011;55230;42.602;23.470;2022-12-26T08:53:36;57.73;;;42.03;;
11052;SDS011;55230;42.602;23.470;2022-12-26T08:56:04;42.40;;;32.67;;
11052;SDS011;55230;42.602;23.470;2022-12-26T08:58:34;43.83;;;32.60;;
11052;SDS011;55230;42.602;23.470;2022-12-26T09:01:08;43.30;;;30.93;;
11052;SDS011;55230;42.602;23.470;2022-12-26T09:03:36;55.17;;;35.60;;
11052;SDS011;55230;42.602;23.470;2022-12-26T09:06:03;39.87;;;26.07;;
11052;SDS011;55230;42.602;23.470;2022-12-26T09:08:30;57.07;;;35.93;;
11052;SDS011;55230;42.602;23.470;2022-12-26T09:11:00;48.97;;;33.00;;
11052;SDS011;55230;42.602;23.470;2022-12-26T09:13:28;40.97;;;29.23;;
11052;SDS011;55230;42.602;23.470;2022-12-26T09:16:03;34.93;;;22.43;;
11052;SDS011;55230;42.602;23.470;2022-12-26T09:18:31;33.70;;;21.67;;
11052;SDS011;55230;42.602;23.470;2022-12-26T09:20:58;35.23;;;22.97;;
11052;SDS011;55230;42.602;23.470;2022-12-26T09:23:26;31.50;;;22.83;;
11052;SDS011;55230;42.602;23.470;2022-12-26T09:25:53;34.00;;;23.33;;
11052;SDS011;55230;42.602;23.470;2022-12-26T09:28:20;37.93;;;25.17;;
11052;SDS011;55230;42.602;23.470;2022-12-26T09:30:47;32.30;;;22.63;;
11052;SDS011;55230;42.602;23.470;2022-12-26T09:33:15;31.53;;;21.80;;
11052;SDS011;55230;42.602;23.470;2022-12-26T09:35:42;23.37;;;18.00;;
11052;SDS011;55230;42.602;23.470;2022-12-26T09:38:09;20.90;;;16.57;;
11052;SDS011;55230;42.602;23.470;2022-12-26T09:40:40;28.57;;;19.57;;
11052;SDS011;55230;42.602;23.470;2022-12-26T09:43:18;36.73;;;25.17;;
11052;SDS011;55230;42.602;23.470;2022-12-26T09:45:54;52.93;;;32.70;;
11052;SDS011;55230;42.602;23.470;2022-12-26T09:48:33;46.13;;;31.17;;
11052;SDS011;55230;42.602;23.470;2022-12-26T09:51:04;38.83;;;27.70;;
11052;SDS011;55230;42.602;23.470;2022-12-26T09:53:35;43.93;;;30.83;;
11052;SDS011;55230;42.602;23.470;2022-12-26T09:56:06;50.23;;;32.00;;
11052;SDS011;55230;42.602;23.470;2022-12-26T09:58:38;39.20;;;29.73;;
11052;SDS011;55230;42.602;23.470;2022-12-26T10:01:10;39.27;;;27.67;;
11052;SDS011;55230;42.602;23.470;2022-12-26T10:03:42;38.80;;;25.00;;
11052;SDS011;55230;42.602;23.470;2022-12-26T10:06:13;37.83;;;25.03;;
11052;SDS011;55230;42.602;23.470;2022-12-26T10:08:45;39.07;;;27.57;;
11052;SDS011;55230;42.602;23.470;2022-12-26T10:11:52;33.27;;;23.97;;
11052;SDS011;55230;42.602;23.470;2022-12-26T10:14:35;25.43;;;19.23;;
11052;SDS011;55230;42.602;23.470;2022-12-26T10:17:09;30.67;;;24.00;;
11052;SDS011;55230;42.602;23.470;2022-12-26T10:19:49;24.00;;;17.50;;
11052;SDS011;55230;42.602;23.470;2022-12-26T10:22:30;21.27;;;15.63;;
11052;SDS011;55230;42.602;23.470;2022-12-26T10:25:11;18.40;;;13.93;;
11052;SDS011;55230;42.602;23.470;2022-12-26T10:27:41;29.83;;;22.80;;
11052;SDS011;55230;42.602;23.470;2022-12-26T10:30:14;19.67;;;16.43;;
11052;SDS011;55230;42.602;23.470;2022-12-26T10:32:46;19.50;;;14.73;;
11052;SDS011;55230;42.602;23.470;2022-12-26T10:35:20;23.07;;;17.30;;
11052;SDS011;55230;42.602;23.470;2022-12-26T10:37:50;22.10;;;16.03;;
11052;SDS011;55230;42.602;23.470;2022-12-26T10:40:20;19.50;;;13.73;;
11052;SDS011;55230;42.602;23.470;2022-12-26T10:42:51;17.57;;;13.33;;
11052;SDS011;55230;42.602;23.470;2022-12-26T10:45:21;18.77;;;15.00;;
11052;SDS011;55230;42.602;23.470;2022-12-26T10:47:54;18.60;;;12.77;;
11052;SDS011;55230;42.602;23.470;2022-12-26T10:50:24;14.97;;;11.30;;
11052;SDS011;55230;42.602;23.470;2022-12-26T10:52:54;18.03;;;12.57;;
11052;SDS011;55230;42.602;23.470;2022-12-26T10:55:28;21.33;;;15.73;;
11052;SDS011;55230;42.602;23.470;2022-12-26T10:57:58;18.27;;;13.73;;
11052;SDS011;55230;42.602;23.470;2022-12-26T11:00:28;16.57;;;13.00;;
11052;SDS011;55230;42.602;23.470;2022-12-26T11:03:00;15.63;;;11.40;;
11052;SDS011;55230;42.602;23.470;2022-12-26T11:05:30;13.73;;;10.37;;
11052;SDS011;55230;42.602;23.470;2022-12-26T11:08:04;13.07;;;10.03;;
11052;SDS011;55230;42.602;23.470;2022-12-26T11:10:34;12.63;;;9.30;;
11052;SDS011;55230;42.602;23.470;2022-12-26T11:13:03;15.80;;;10.33;;
11052;SDS011;55230;42.602;23.470;2022-12-26T11:15:33;15.17;;;10.63;;
11052;SDS011;55230;42.602;23.470;2022-12-26T11:18:07;12.30;;;8.20;;
11052;SDS011;55230;42.602;23.470;2022-12-26T11:20:43;10.53;;;8.33;;
11052;SDS011;55230;42.602;23.470;2022-12-26T11:23:13;20.37;;;10.80;;
11052;SDS011;55230;42.602;23.470;2022-12-26T11:25:48;14.93;;;9.80;;
11052;SDS011;55230;42.602;23.470;2022-12-26T11:28:24;15.10;;;10.13;;
11052;SDS011;55230;42.602;23.470;2022-12-26T11:30:53;11.50;;;8.27;;
11052;SDS011;55230;42.602;23.470;2022-12-26T11:33:25;8.63;;;6.93;;
11052;SDS011;55230;42.602;23.470;2022-12-26T11:36:06;7.43;;;5.77;;
11052;SDS011;55230;42.602;23.470;2022-12-26T11:38:41;8.70;;;5.50;;
11052;SDS011;55230;42.602;23.470;2022-12-26T11:41:13;6.50;;;4.60;;
11052;SDS011;55230;42.602;23.470;2022-12-26T11:44:00;6.13;;;5.00;;
11052;SDS011;55230;42.602;23.470;2022-12-26T11:46:37;4.67;;;3.40;;
11052;SDS011;55230;42.602;23.470;2022-12-26T11:49:13;4.60;;;3.50;;
11052;SDS011;55230;42.602;23.470;2022-12-26T11:51:44;5.80;;;4.50;;
11052;SDS011;55230;42.602;23.470;2022-12-26T11:54:20;4.30;;;3.00;;
11052;SDS011;55230;42.602;23.470;2022-12-26T11:59:44;5.00;;;3.30;;
11052;SDS011;55230;42.602;23.470;2022-12-26T12:02:25;4.43;;;3.47;;
11052;SDS011;55230;42.602;23.470;2022-12-26T12:04:56;13.40;;;8.40;;
11052;SDS011;55230;42.602;23.470;2022-12-26T12:10:31;14.37;;;11.07;;
11052;SDS011;55230;42.602;23.470;2022-12-26T12:13:10;12.47;;;8.57;;
11052;SDS011;55230;42.602;23.470;2022-12-26T12:15:45;13.20;;;7.90;;
11052;SDS011;55230;42.602;23.470;2022-12-26T12:18:21;13.37;;;8.60;;
11052;SDS011;55230;42.602;23.470;2022-12-26T12:21:02;24.20;;;18.20;;
11052;SDS011;55230;42.602;23.470;2022-12-26T12:23:43;23.03;;;17.87;;
11052;SDS011;55230;42.602;23.470;2022-12-26T12:26:21;17.27;;;12.50;;
11052;SDS011;55230;42.602;23.470;2022-12-26T12:29:01;18.53;;;14.47;;
11052;SDS011;55230;42.602;23.470;2022-12-26T12:31:41;19.77;;;14.27;;
11052;SDS011;55230;42.602;23.470;2022-12-26T12:34:19;21.93;;;16.10;;
11052;SDS011;55230;42.602;23.470;2022-12-26T12:36:59;22.47;;;15.13;;
11052;SDS011;55230;42.602;23.470;2022-12-26T12:39:37;20.90;;;17.07;;
11052;SDS011;55230;42.602;23.470;2022-12-26T12:42:15;22.03;;;16.77;;
11052;SDS011;55230;42.602;23.470;2022-12-26T12:44:57;24.97;;;16.80;;
11052;SDS011;55230;42.602;23.470;2022-12-26T12:47:45;17.37;;;14.30;;
11052;SDS011;55230;42.602;23.470;2022-12-26T12:50:21;17.30;;;15.23;;
11052;SDS011;55230;42.602;23.470;2022-12-26T12:52:54;16.33;;;13.33;;
11052;SDS011;55230;42.602;23.470;2022-12-26T12:58:31;12.60;;;8.40;;
11052;SDS011;55230;42.602;23.470;2022-12-26T13:01:08;9.93;;;7.70;;
11052;SDS011;55230;42.602;23.470;2022-12-26T13:03:38;11.27;;;8.53;;
11052;SDS011;55230;42.602;23.470;2022-12-26T13:06:10;13.07;;;9.27;;
11052;SDS011;55230;42.602;23.470;2022-12-26T13:08:42;11.93;;;9.00;;
11052;SDS011;55230;42.602;23.470;2022-12-26T13:11:14;18.10;;;13.83;;
11052;SDS011;55230;42.602;23.470;2022-12-26T13:13:46;13.77;;;11.67;;
11052;SDS011;55230;42.602;23.470;2022-12-26T13:16:18;11.43;;;9.03;;
11052;SDS011;55230;42.602;23.470;2022-12-26T13:18:48;12.97;;;10.53;;
11052;SDS011;55230;42.602;23.470;2022-12-26T13:21:18;16.90;;;13.07;;
11052;SDS011;55230;42.602;23.470;2022-12-26T13:23:47;15.67;;;10.37;;
11052;SDS011;55230;42.602;23.470;2022-12-26T13:26:37;12.90;;;10.17;;
11052;SDS011;55230;42.602;23.470;2022-12-26T13:29:09;12.07;;;9.57;;
11052;SDS011;55230;42.602;23.470;2022-12-26T13:31:39;11.77;;;8.73;;
11052;SDS011;55230;42.602;23.470;2022-12-26T13:34:08;12.53;;;8.97;;
11052;SDS011;55230;42.602;23.470;2022-12-26T13:36:41;10.27;;;8.30;;
11052;SDS011;55230;42.602;23.470;2022-12-26T13:42:14;12.80;;;9.83;;
11052;SDS011;55230;42.602;23.470;2022-12-26T13:51:07;19.57;;;15.47;;
11052;SDS011;55230;42.602;23.470;2022-12-26T13:54:11;23.63;;;18.27;;
11052;SDS011;55230;42.602;23.470;2022-12-26T13:57:02;15.20;;;12.27;;
11052;SDS011;55230;42.602;23.470;2022-12-26T13:59:54;11.80;;;9.30;;
11052;SDS011;55230;42.602;23.470;2022-12-26T14:02:40;13.27;;;10.90;;
11052;SDS011;55230;42.602;23.470;2022-12-26T14:05:32;16.83;;;14.53;;
11052;SDS011;55230;42.602;23.470;2022-12-26T14:08:05;17.50;;;11.63;;
11052;SDS011;55230;42.602;23.470;2022-12-26T14:10:39;18.33;;;15.43;;
11052;SDS011;55230;42.602;23.470;2022-12-26T14:16:23;17.03;;;13.53;;
11052;SDS011;55230;42.602;23.470;2022-12-26T14:18:58;17.27;;;13.00;;
11052;SDS011;55230;42.602;23.470;2022-12-26T14:21:37;16.73;;;13.27;;
11052;SDS011;55230;42.602;23.470;2022-12-26T14:24:17;14.13;;;11.53;;
11052;SDS011;55230;42.602;23.470;2022-12-26T14:26:52;11.57;;;10.37;;
11052;SDS011;55230;42.602;23.470;2022-12-26T14:29:27;12.60;;;9.67;;
11052;SDS011;55230;42.602;23.470;2022-12-26T14:32:09;14.90;;;11.00;;
11052;SDS011;55230;42.602;23.470;2022-12-26T14:34:52;11.93;;;9.03;;
11052;SDS011;55230;42.602;23.470;2022-12-26T14:37:30;8.10;;;6.30;;
11052;SDS011;55230;42.602;23.470;2022-12-26T14:40:14;8.13;;;7.13;;
11052;SDS011;55230;42.602;23.470;2022-12-26T14:43:01;11.43;;;10.23;;
11052;SDS011;55230;42.602;23.470;2022-12-26T14:45:39;15.80;;;12.70;;
11052;SDS011;55230;42.602;23.470;2022-12-26T15:03:15;13.93;;;10.10;;
11052;SDS011;55230;42.602;23.470;2022-12-26T15:06:15;17.17;;;12.23;;
11052;SDS011;55230;42.602;23.470;2022-12-26T15:09:10;13.73;;;11.03;;
11052;SDS011;55230;42.602;23.470;2022-12-26T15:11:56;10.97;;;8.73;;
11052;SDS011;55230;42.602;23.470;2022-12-26T15:17:37;6.63;;;4.87;;
11052;SDS011;55230;42.602;23.470;2022-12-26T15:20:17;6.97;;;5.53;;
11052;SDS011;55230;42.602;23.470;2022-12-26T15:23:25;8.00;;;5.37;;
11052;SDS011;55230;42.602;23.470;2022-12-26T15:26:17;5.97;;;4.80;;
11052;SDS011;55230;42.602;23.470;2022-12-26T15:29:02;9.53;;;5.97;;
11052;SDS011;55230;42.602;23.470;2022-12-26T15:31:58;10.47;;;6.10;;
11052;SDS011;55230;42.602;23.470;2022-12-26T15:34:38;7.57;;;4.80;;
11052;SDS011;55230;42.602;23.470;2022-12-26T15:37:22;8.47;;;6.07;;
11052;SDS011;55230;42.602;23.470;2022-12-26T15:40:00;10.90;;;7.70;;